Randolph, Kansas
Current Conditions -  °F | °C
As of 1:52 AM on Monday 26 Jan 2015 (Local Time) from KMHK Reporting Station
Clear Clear  
Wind Chill: 22°   Ceiling: Unl
Heat Index: 22°   Visibility: 9mi
Dew Point: 21°   Wind: 3mph
Humidity: 96%   Direction: 230°SW
Pressure: 30.12"   Gusts: NA
Location:  39.43°N, 96.76°W
Report Text: KMHK 260752Z AUTO 23003KT 9SM CLR M06/M06 A3012 RMK AO2 SLP209 I1000 T10561061 TSNO
Loading
Personal Weather Stations






























Interactive Weather Map New forecast layout! Learn more

10-Day Weather Forecast

Advertisements
Track Severe Weather on mobile